Flight Track Log - Related Links

Times and Time Zones

All times are in EST time to prevent confusion due to time zone crossing. See the CSZ9721 flight status page for this flight to view local times or setup timezone preferences in your user account.

Time Position Orientation Groundspeed Altitude Reporting Facility
EST Latitude Longitude Course Direction KTS MPH feet Rate Location/Type
Wed 06:10:00 AM 23.2512 114.1030 24° Northeast  Level Estimated
Wed 06:11:00 AM 23.3531 114.1517 24° Northeast  Level Estimated
Wed 06:12:00 AM 23.4550 114.2004 24° Northeast  Level Estimated
Wed 06:13:00 AM 23.5569 114.2493 24° Northeast  Level Estimated
Wed 06:14:00 AM 23.6587 114.2982 24° Northeast  Level Estimated
Wed 06:15:00 AM 23.7605 114.3472 24° Northeast  Level Estimated
Wed 06:16:00 AM 23.8624 114.3962 24° Northeast  Level Estimated
Wed 06:17:00 AM 23.9642 114.4454 24° Northeast  Level Estimated
Wed 06:18:00 AM 24.0660 114.4946 24° Northeast  Level Estimated
Wed 06:19:00 AM 24.1677 114.5439 24° Northeast  Level Estimated
Wed 06:20:00 AM 24.2695 114.5933 24° Northeast  Level Estimated
Wed 06:21:00 AM 24.3713 114.6428 24° Northeast  Level Estimated
Wed 06:22:00 AM 24.4730 114.6923 24° Northeast  Level Estimated
Wed 06:23:00 AM 24.5747 114.7419 24° Northeast  Level Estimated
Wed 06:24:00 AM 24.6764 114.7916 24° Northeast  Level Estimated
Wed 06:25:00 AM 24.7781 114.8414 24° Northeast  Level Estimated
Wed 06:26:00 AM 24.8797 114.8913 24° Northeast  Level Estimated
Wed 06:27:00 AM 24.9814 114.9412 24° Northeast  Level Estimated
Wed 06:28:00 AM 25.0830 114.9912 24° Northeast  Level Estimated
Wed 06:29:00 AM 25.1846 115.0413 24° Northeast  Level Estimated
Wed 06:30:00 AM 25.2862 115.0915 24° Northeast  Level Estimated
Wed 06:31:00 AM 25.3878 115.1418 24° Northeast  Level Estimated
Wed 06:32:00 AM 25.4894 115.1921 24° Northeast  Level Estimated
Wed 06:33:00 AM 25.5909 115.2426 24° Northeast  Level Estimated
Wed 06:34:00 AM 25.6924 115.2931 24° Northeast  Level Estimated
Wed 06:35:00 AM 25.7940 115.3437 24° Northeast  Level Estimated
Wed 06:36:00 AM 25.8955 115.3944 24° Northeast  Level Estimated
Wed 06:37:00 AM 25.9969 115.4452 24° Northeast  Level Estimated
Wed 06:38:00 AM 26.0984 115.4961 24° Northeast  Level Estimated
Wed 06:39:00 AM 26.1998 115.5471 24° Northeast  Level Estimated
Wed 06:40:00 AM 26.3013 115.5981 24° Northeast  Level Estimated
Wed 06:41:00 AM 26.4027 115.6493 24° Northeast  Level Estimated
Wed 06:42:00 AM 26.5040 115.7005 24° Northeast  Level Estimated
Wed 06:43:00 AM 26.6054 115.7518 24° Northeast  Level Estimated
Wed 06:44:00 AM 26.7068 115.8033 24° Northeast  Level Estimated
Wed 06:45:00 AM 26.8081 115.8548 24° Northeast  Level Estimated
Wed 06:46:00 AM 26.9094 115.9064 24° Northeast  Level Estimated
Wed 06:47:00 AM 27.0107 115.9581 24° Northeast  Level Estimated
Wed 06:48:00 AM 27.1120 116.0098 24° Northeast  Level Estimated
Wed 06:49:00 AM 27.2132 116.0617 24° Northeast  Level Estimated
Wed 06:50:00 AM 27.3145 116.1137 25° Northeast  Level Estimated
Wed 06:51:00 AM 27.4157 116.1658 25° Northeast  Level Estimated
Wed 06:52:00 AM 27.5169 116.2179 25° Northeast  Level Estimated
Wed 06:53:00 AM 27.6181 116.2702 25° Northeast  Level Estimated
Wed 06:54:00 AM 27.7192 116.3225 25° Northeast  Level Estimated
Wed 06:55:00 AM 27.8204 116.3750 25° Northeast  Level Estimated
Wed 06:56:00 AM 27.9215 116.4276 25° Northeast  Level Estimated
Wed 06:57:00 AM 28.0226 116.4802 25° Northeast  Level Estimated
Wed 06:58:00 AM 28.1237 116.5330 25° Northeast  Level Estimated
Wed 06:59:00 AM 28.2247 116.5858 25° Northeast  Level Estimated
Wed 07:00:00 AM 28.3258 116.6387 25° Northeast  Level Estimated
Wed 07:01:00 AM 28.4268 116.6918 25° Northeast  Level Estimated
Wed 07:02:00 AM 28.5278 116.7449 25° Northeast  Level Estimated
Wed 07:03:00 AM 28.6288 116.7982 25° Northeast  Level Estimated
Wed 07:04:00 AM 28.7297 116.8516 25° Northeast  Level Estimated
Wed 07:05:00 AM 28.8307 116.9050 25° Northeast  Level Estimated
Wed 07:06:00 AM 28.9316 116.9586 25° Northeast  Level Estimated
Wed 07:07:00 AM 29.0324 117.0123 25° Northeast  Level Estimated
Wed 07:08:00 AM 29.1333 117.0660 25° Northeast  Level Estimated
Wed 07:09:00 AM 29.2342 117.1199 25° Northeast  Level Estimated
Wed 07:10:00 AM 29.3350 117.1739 25° Northeast  Level Estimated
Wed 07:11:00 AM 29.3386 117.1758 25° Northeast  Level Estimated
Wed 07:12:00 AM 29.3386 117.1758 69° East  Level Estimated
Wed 07:13:00 AM 29.3386 117.1758 69° East  Level Estimated
Wed 07:14:00 AM 29.3386 117.1758 69° East  Level Estimated
Wed 07:15:00 AM 29.3386 117.1758 69° East  Level Estimated
Wed 07:16:00 AM 29.3386 117.1758 69° East  Level Estimated
Wed 07:17:00 AM 29.3386 117.1758 69° East  Level Estimated
Wed 07:18:00 AM 29.3386 117.1758 69° East  Level Estimated
Wed 07:19:00 AM 29.3386 117.1758 69° East  Level Estimated
Wed 07:20:00 AM 29.3386 117.1758 69° East  Level Estimated
Wed 07:21:00 AM 29.3386 117.1758 69° East  Level Estimated
Wed 07:22:00 AM 29.3386 117.1758 69° East  Level Estimated
Wed 07:23:00 AM 29.3386 117.1758 69° East  Level Estimated
Wed 07:24:00 AM 29.3386 117.1758 69° East  Level Estimated
Wed 07:25:00 AM 29.3386 117.1758 69° East  Level Estimated
Wed 07:26:00 AM 29.3386 117.1758 69° East  Level Estimated

Login

Don't have an account? Register now (free) for customized features, flight alerts, and more!